createdAt,value
2019-04-22T00:00:09.042Z,9.40
2019-04-22T00:02:45.881Z,9.30
2019-04-22T00:05:16.630Z,9.20
2019-04-22T00:08:01.651Z,9.10
2019-04-22T00:10:32.669Z,9.00
2019-04-22T00:12:59.779Z,9.00
2019-04-22T00:15:26.074Z,8.90
2019-04-22T00:18:07.897Z,8.80
2019-04-22T00:20:31.033Z,8.80
2019-04-22T00:22:59.427Z,8.70
2019-04-22T00:25:34.699Z,8.70
2019-04-22T00:28:02.384Z,8.70
2019-04-22T00:30:25.490Z,8.60
2019-04-22T00:33:18.676Z,8.60
2019-04-22T00:35:41.872Z,8.60
2019-04-22T00:38:17.335Z,8.50
2019-04-22T00:40:41.247Z,8.60
2019-04-22T00:43:17.325Z,8.50
2019-04-22T00:45:38.988Z,8.50
2019-04-22T00:48:14.373Z,8.50
2019-04-22T00:50:38.791Z,8.50
2019-04-22T00:53:11.632Z,8.40
2019-04-22T00:55:34.279Z,8.40
2019-04-22T00:58:06.363Z,8.50
2019-04-22T01:00:33.293Z,8.50
2019-04-22T01:03:05.372Z,8.50
2019-04-22T01:05:37.110Z,8.50
2019-04-22T01:08:08.146Z,8.40
2019-04-22T01:10:31.870Z,8.40
2019-04-22T01:12:56.960Z,8.30
2019-04-22T01:15:30.342Z,8.30
2019-04-22T01:18:00.196Z,8.30
2019-04-22T01:20:54.587Z,8.20
2019-04-22T01:23:02.142Z,8.20
2019-04-22T01:25:24.972Z,8.10
2019-04-22T01:27:49.034Z,8.00
2019-04-22T01:30:18.670Z,8.00
2019-04-22T01:32:39.964Z,7.90
2019-04-22T01:35:18.036Z,7.80
2019-04-22T01:37:54.615Z,7.80
2019-04-22T01:40:36.905Z,7.70
2019-04-22T01:43:01.812Z,7.70
2019-04-22T01:45:33.344Z,7.70
2019-04-22T01:48:00.861Z,7.80
2019-04-22T01:50:30.682Z,7.80
2019-04-22T01:53:06.554Z,7.90
2019-04-22T01:57:53.322Z,8.00
2019-04-22T02:00:15.237Z,8.00
2019-04-22T02:02:52.126Z,8.10
2019-04-22T02:07:49.309Z,8.10
2019-04-22T02:10:30.107Z,8.10
2019-04-22T02:12:54.120Z,8.10
2019-04-22T02:15:16.754Z,8.00
2019-04-22T02:18:11.603Z,7.90
2019-04-22T02:20:21.404Z,7.80
2019-04-22T02:26:02.477Z,7.60
2019-04-22T02:38:46.624Z,7.30
2019-04-22T02:43:49.208Z,7.30
2019-04-22T02:46:13.530Z,7.40
2019-04-22T02:48:48.658Z,7.40
2019-04-22T02:51:04.356Z,7.40
2019-04-22T02:53:58.454Z,7.30
2019-04-22T02:56:05.704Z,7.40
2019-04-22T02:58:25.713Z,7.40
2019-04-22T03:05:59.265Z,7.50
2019-04-22T03:08:25.606Z,7.60
2019-04-22T03:10:56.513Z,7.60
2019-04-22T03:15:52.902Z,7.70
2019-04-22T03:18:21.718Z,7.70
2019-04-22T03:20:53.387Z,7.70
2019-04-22T03:26:00.483Z,7.70
2019-04-22T03:28:08.497Z,7.60
2019-04-22T03:33:16.284Z,7.50
2019-04-22T03:35:45.200Z,7.40
2019-04-22T03:38:07.279Z,7.40
2019-04-22T03:43:14.267Z,7.30
2019-04-22T03:53:09.423Z,7.00
2019-04-22T03:55:41.156Z,7.00
2019-04-22T03:57:57.371Z,6.90
2019-04-22T04:00:42.909Z,6.90
2019-04-22T04:10:40.219Z,7.20
2019-04-22T04:15:29.922Z,7.20
2019-04-22T04:18:03.353Z,7.10
2019-04-22T04:20:39.402Z,7.10
2019-04-22T04:25:42.734Z,7.10
2019-04-22T04:28:24.541Z,7.10
2019-04-22T04:30:39.982Z,7.10
2019-04-22T04:33:01.568Z,7.00
2019-04-22T04:37:54.865Z,6.90
2019-04-22T04:42:54.516Z,6.80
2019-04-22T04:47:54.449Z,6.80
2019-04-22T04:53:09.863Z,6.90
2019-04-22T05:05:21.101Z,7.30
2019-04-22T05:12:52.953Z,7.50
2019-04-22T05:15:12.047Z,7.50
2019-04-22T05:17:43.672Z,7.60
2019-04-22T05:20:13.434Z,7.60
2019-04-22T05:22:35.985Z,7.70
2019-04-22T05:24:59.970Z,7.90
2019-04-22T05:32:24.724Z,8.20
2019-04-22T05:34:52.834Z,8.30
2019-04-22T05:37:31.059Z,8.40
2019-04-22T05:39:52.441Z,8.50
2019-04-22T05:42:17.949Z,8.60
2019-04-22T05:44:49.779Z,8.70
2019-04-22T05:47:15.978Z,8.90
2019-04-22T05:49:45.945Z,9.00
2019-04-22T05:52:19.284Z,9.10
2019-04-22T05:54:38.742Z,9.20
2019-04-22T05:57:15.585Z,9.30
2019-04-22T05:59:47.638Z,9.30
2019-04-22T06:02:11.157Z,9.40
2019-04-22T06:04:37.201Z,9.50
2019-04-22T06:07:06.601Z,9.60
2019-04-22T06:09:32.366Z,9.70
2019-04-22T06:12:03.230Z,9.90
2019-04-22T06:14:31.123Z,10.00
2019-04-22T06:17:08.286Z,10.20
2019-04-22T06:19:24.871Z,10.30
2019-04-22T06:21:57.996Z,10.50
2019-04-22T06:24:27.891Z,10.80
2019-04-22T06:27:10.224Z,10.90
2019-04-22T06:29:27.093Z,11.10
2019-04-22T06:32:23.011Z,11.40
2019-04-22T06:34:22.136Z,11.60
2019-04-22T06:36:53.886Z,11.80
2019-04-22T06:41:48.568Z,12.40
2019-04-22T06:44:29.801Z,12.60
2019-04-22T06:47:00.102Z,12.90
2019-04-22T06:49:33.312Z,13.20
2019-04-22T06:51:55.600Z,13.40
2019-04-22T06:54:28.333Z,13.50
2019-04-22T06:56:57.232Z,13.80
2019-04-22T06:59:18.871Z,14.00
2019-04-22T07:01:52.495Z,14.20
2019-04-22T07:04:19.923Z,14.20
2019-04-22T07:06:48.600Z,14.30
2019-04-22T07:11:43.187Z,14.50
2019-04-22T07:14:09.309Z,14.60
2019-04-22T07:19:07.419Z,14.90
2019-04-22T07:21:44.119Z,15.20
2019-04-22T07:24:34.515Z,15.50
2019-04-22T07:26:45.048Z,15.70
2019-04-22T07:29:23.606Z,16.10
2019-04-22T07:31:52.962Z,16.50
2019-04-22T07:34:22.301Z,16.90
2019-04-22T07:36:56.608Z,17.10
2019-04-22T07:39:15.676Z,17.30
2019-04-22T07:41:48.985Z,17.50
2019-04-22T07:44:21.890Z,17.80
2019-04-22T07:46:51.627Z,18.20
2019-04-22T07:49:24.032Z,18.50
2019-04-22T07:51:46.594Z,18.60
2019-04-22T07:54:14.461Z,18.60
2019-04-22T07:56:48.303Z,19.10
2019-04-22T07:59:18.579Z,19.30
2019-04-22T08:01:42.359Z,19.60
2019-04-22T08:04:23.125Z,19.80
2019-04-22T08:06:54.146Z,19.90
2019-04-22T08:09:19.643Z,19.80
2019-04-22T08:14:14.771Z,20.10
2019-04-22T08:16:45.105Z,20.20
2019-04-22T08:19:20.397Z,20.20
2019-04-22T08:21:46.239Z,20.10
2019-04-22T08:24:32.270Z,19.90
2019-04-22T08:26:38.318Z,20.10
2019-04-22T08:29:25.425Z,20.50
2019-04-22T08:34:12.173Z,21.00
2019-04-22T08:36:40.867Z,21.00
2019-04-22T08:39:08.247Z,21.20
2019-04-22T08:41:33.119Z,21.20
2019-04-22T08:44:02.355Z,21.00
2019-04-22T08:46:38.608Z,20.80
2019-04-22T08:49:02.252Z,20.90
2019-04-22T08:54:07.804Z,21.00
2019-04-22T08:56:32.434Z,21.40
2019-04-22T08:59:01.743Z,21.60
2019-04-22T09:03:52.670Z,22.80
2019-04-22T09:06:34.110Z,23.20
2019-04-22T09:08:54.084Z,22.80
2019-04-22T09:11:19.877Z,22.70
2019-04-22T09:13:50.719Z,22.70
2019-04-22T09:16:19.305Z,22.60
2019-04-22T09:18:41.027Z,22.50
2019-04-22T09:23:44.137Z,22.90
2019-04-22T09:26:08.925Z,22.90
2019-04-22T09:28:38.276Z,22.80
2019-04-22T09:31:06.455Z,22.70
2019-04-22T09:33:31.920Z,22.80
2019-04-22T09:36:13.031Z,23.30
2019-04-22T09:38:37.567Z,23.50
2019-04-22T09:41:00.728Z,23.90
2019-04-22T09:43:32.219Z,23.90
2019-04-22T09:45:55.303Z,23.90
2019-04-22T09:48:33.625Z,23.60
2019-04-22T09:50:55.667Z,23.40
2019-04-22T09:53:26.611Z,23.60
2019-04-22T09:55:57.216Z,23.50
2019-04-22T09:58:23.504Z,23.60
2019-04-22T10:01:13.248Z,24.00
2019-04-22T10:03:36.527Z,24.30
2019-04-22T10:06:10.212Z,24.50
2019-04-22T10:08:41.098Z,24.70
2019-04-22T10:11:04.316Z,24.10
2019-04-22T10:13:36.097Z,23.90
2019-04-22T10:16:02.802Z,24.10
2019-04-22T10:18:25.820Z,24.40
2019-04-22T10:20:54.120Z,24.90
2019-04-22T10:23:25.322Z,25.30
2019-04-22T10:25:54.436Z,25.30
2019-04-22T10:28:24.835Z,25.10
2019-04-22T10:30:47.412Z,25.20
2019-04-22T10:33:13.300Z,25.30
2019-04-22T10:35:23.095Z,25.40
2019-04-22T10:37:48.252Z,25.50
2019-04-22T10:40:19.458Z,25.70
2019-04-22T10:42:47.302Z,25.90
2019-04-22T10:45:14.547Z,26.00
2019-04-22T10:47:42.391Z,25.90
2019-04-22T10:50:10.277Z,25.80
2019-04-22T10:52:39.381Z,26.00
2019-04-22T10:55:09.760Z,25.70
2019-04-22T10:57:36.668Z,25.60
2019-04-22T11:00:06.258Z,25.40
2019-04-22T11:02:37.245Z,25.10
2019-04-22T11:05:06.378Z,25.00
2019-04-22T11:07:40.479Z,25.00
2019-04-22T11:10:21.172Z,25.00
2019-04-22T11:12:32.358Z,25.00
2019-04-22T11:14:58.342Z,25.50
2019-04-22T11:17:27.090Z,25.90
2019-04-22T11:19:53.515Z,26.20
2019-04-22T11:22:26.331Z,26.10
2019-04-22T11:24:50.699Z,26.00
2019-04-22T11:27:18.820Z,25.60
2019-04-22T11:29:45.770Z,25.40
2019-04-22T11:32:12.918Z,25.50
2019-04-22T11:34:39.878Z,25.60
2019-04-22T11:37:06.486Z,25.80
2019-04-22T11:39:36.246Z,25.60
2019-04-22T11:42:02.402Z,25.90
2019-04-22T11:44:30.661Z,26.10
2019-04-22T11:46:57.367Z,26.00
2019-04-22T11:49:23.873Z,26.10
2019-04-22T11:51:51.815Z,26.30
2019-04-22T11:54:18.895Z,26.40
2019-04-22T11:56:45.629Z,26.50
2019-04-22T11:59:15.010Z,26.20
2019-04-22T12:01:42.681Z,26.20
2019-04-22T12:04:09.741Z,26.00
2019-04-22T12:06:37.877Z,25.60
2019-04-22T12:09:11.959Z,25.60
2019-04-22T12:11:38.873Z,25.80
2019-04-22T12:14:06.239Z,25.90
2019-04-22T12:16:32.968Z,26.20
2019-04-22T12:19:00.880Z,26.30
2019-04-22T12:21:33.073Z,26.40
2019-04-22T12:24:01.026Z,26.40
2019-04-22T12:26:28.720Z,26.50
2019-04-22T12:28:55.180Z,26.50
2019-04-22T12:31:23.791Z,26.40
2019-04-22T12:33:53.073Z,26.50
2019-04-22T12:36:20.363Z,26.80
2019-04-22T12:38:47.466Z,26.60
2019-04-22T12:41:15.915Z,26.90
2019-04-22T12:43:43.116Z,27.00
2019-04-22T12:46:10.251Z,26.80
2019-04-22T12:48:39.117Z,26.50
2019-04-22T12:51:09.236Z,26.10
2019-04-22T12:53:36.166Z,26.00
2019-04-22T12:56:09.476Z,26.10
2019-04-22T12:58:35.901Z,25.70
2019-04-22T13:01:03.297Z,25.60
2019-04-22T13:03:29.767Z,25.80
2019-04-22T13:05:57.407Z,26.20
2019-04-22T13:08:25.362Z,26.50
2019-04-22T13:10:59.296Z,26.70
2019-04-22T13:13:22.938Z,26.60
2019-04-22T13:15:50.911Z,26.40
2019-04-22T13:18:28.768Z,25.80
2019-04-22T13:20:48.466Z,25.20
2019-04-22T13:23:19.874Z,24.80
2019-04-22T13:25:49.060Z,24.40
2019-04-22T13:28:15.568Z,24.10
2019-04-22T13:30:42.239Z,24.00
2019-04-22T13:33:08.634Z,23.90
2019-04-22T13:35:36.212Z,24.00
2019-04-22T13:38:04.957Z,24.20
2019-04-22T13:40:32.848Z,24.30
2019-04-22T13:43:00.681Z,24.40
2019-04-22T13:45:27.677Z,24.60
2019-04-22T13:48:11.200Z,24.80
2019-04-22T13:50:56.428Z,25.00
2019-04-22T13:54:07.457Z,25.30
2019-04-22T13:55:51.359Z,25.40
2019-04-22T13:58:15.839Z,25.70
2019-04-22T14:00:30.852Z,25.60
2019-04-22T14:03:18.361Z,25.60
2019-04-22T14:05:50.891Z,25.50
2019-04-22T14:08:19.820Z,25.90
2019-04-22T14:10:46.340Z,25.80
2019-04-22T14:13:14.042Z,25.50
2019-04-22T14:15:43.559Z,25.40
2019-04-22T14:18:12.861Z,25.30
2019-04-22T14:20:40.709Z,25.20
2019-04-22T14:23:08.354Z,25.40
2019-04-22T14:25:38.712Z,25.20
2019-04-22T14:28:10.222Z,25.40
2019-04-22T14:30:34.685Z,25.40
2019-04-22T14:33:05.279Z,25.50
2019-04-22T14:35:33.699Z,25.50
2019-04-22T14:38:01.519Z,25.30
2019-04-22T14:40:32.926Z,25.00
2019-04-22T14:43:20.288Z,24.90
2019-04-22T14:46:02.668Z,25.00
2019-04-22T14:48:19.940Z,25.10
2019-04-22T14:50:49.764Z,25.20
2019-04-22T14:53:15.814Z,24.80
2019-04-22T14:55:26.902Z,24.90
2019-04-22T14:57:54.948Z,24.80
2019-04-22T15:00:24.063Z,24.70
2019-04-22T15:02:52.150Z,24.50
2019-04-22T15:05:21.917Z,24.40
2019-04-22T15:07:49.898Z,24.30
2019-04-22T15:10:20.208Z,24.20
2019-04-22T15:12:50.249Z,24.20
2019-04-22T15:15:23.626Z,24.20
2019-04-22T15:18:08.486Z,24.00
2019-04-22T15:20:37.531Z,23.80
2019-04-22T15:23:04.770Z,23.70
2019-04-22T15:25:32.550Z,23.50
2019-04-22T15:27:59.490Z,23.30
2019-04-22T15:30:30.239Z,22.90
2019-04-22T15:32:57.210Z,22.70
2019-04-22T15:35:25.258Z,22.40
2019-04-22T15:37:53.186Z,22.30
2019-04-22T15:40:20.641Z,22.20
2019-04-22T15:42:48.843Z,22.30
2019-04-22T15:45:16.929Z,22.40
2019-04-22T15:47:44.087Z,22.40
2019-04-22T15:50:12.260Z,22.40
2019-04-22T15:52:46.066Z,22.30
2019-04-22T15:55:09.236Z,22.40
2019-04-22T15:57:38.434Z,22.40
2019-04-22T16:00:21.381Z,22.50
2019-04-22T16:02:37.450Z,22.50
2019-04-22T16:05:06.675Z,22.50
2019-04-22T16:07:37.872Z,22.50
2019-04-22T16:10:07.845Z,22.40
2019-04-22T16:12:51.682Z,22.40
2019-04-22T16:15:11.276Z,22.40
2019-04-22T16:17:40.453Z,22.40
2019-04-22T16:20:09.006Z,22.40
2019-04-22T16:22:57.153Z,22.30
2019-04-22T16:25:29.041Z,22.20
2019-04-22T16:27:56.442Z,22.10
2019-04-22T16:30:29.296Z,22.10
2019-04-22T16:33:01.267Z,22.00
2019-04-22T16:35:28.732Z,22.00
2019-04-22T16:37:56.830Z,21.90
2019-04-22T16:40:24.906Z,21.90
2019-04-22T16:42:58.488Z,21.80
2019-04-22T16:45:20.141Z,21.70
2019-04-22T16:47:46.449Z,21.70
2019-04-22T16:50:14.070Z,21.60
2019-04-22T16:52:41.770Z,21.60
2019-04-22T16:55:08.921Z,21.50
2019-04-22T16:57:35.852Z,21.50
2019-04-22T17:00:08.981Z,21.40
2019-04-22T17:02:55.988Z,21.30
2019-04-22T17:05:41.464Z,21.30
2019-04-22T17:08:08.185Z,21.20
2019-04-22T17:10:35.700Z,21.20
2019-04-22T17:13:08.067Z,21.10
2019-04-22T17:15:31.408Z,21.00
2019-04-22T17:17:58.988Z,20.90
2019-04-22T17:20:27.039Z,20.80
2019-04-22T17:22:55.798Z,20.70
2019-04-22T17:25:22.673Z,20.60
2019-04-22T17:27:49.780Z,20.50
2019-04-22T17:30:16.722Z,20.40
2019-04-22T17:32:45.065Z,20.30
2019-04-22T17:35:12.415Z,20.20
2019-04-22T17:37:42.772Z,20.10
2019-04-22T17:40:30.329Z,20.00
2019-04-22T17:43:02.073Z,19.90
2019-04-22T17:45:33.833Z,19.80
2019-04-22T17:48:15.602Z,19.70
2019-04-22T17:51:11.150Z,19.60
2019-04-22T17:53:38.430Z,19.50
2019-04-22T17:56:02.150Z,19.40
2019-04-22T17:58:27.322Z,19.20
2019-04-22T18:00:55.395Z,19.10
2019-04-22T18:03:14.747Z,18.90
2019-04-22T18:05:40.996Z,18.80
2019-04-22T18:08:21.843Z,18.70
2019-04-22T18:10:49.097Z,18.60
2019-04-22T18:13:28.125Z,18.50
2019-04-22T18:15:48.732Z,18.30
2019-04-22T18:18:18.651Z,18.20
2019-04-22T18:20:41.861Z,18.00
2019-04-22T18:23:01.499Z,18.00
2019-04-22T18:25:36.313Z,17.90
2019-04-22T18:28:17.613Z,17.80
2019-04-22T18:30:35.254Z,17.70
2019-04-22T18:33:07.144Z,17.60
2019-04-22T18:35:33.858Z,17.50
2019-04-22T18:38:23.064Z,17.40
2019-04-22T18:40:38.428Z,17.20
2019-04-22T18:43:13.593Z,17.20
2019-04-22T18:45:49.174Z,17.10
2019-04-22T18:48:02.903Z,16.90
2019-04-22T18:50:51.374Z,16.80
2019-04-22T18:53:29.893Z,16.70
2019-04-22T18:56:01.702Z,16.70
2019-04-22T18:58:27.440Z,16.60
2019-04-22T19:00:45.974Z,16.50
2019-04-22T19:03:19.861Z,16.50
2019-04-22T19:06:03.616Z,16.50
2019-04-22T19:11:02.498Z,16.30
2019-04-22T19:13:50.135Z,16.20
2019-04-22T19:16:09.835Z,16.20
2019-04-22T19:18:36.426Z,16.10
2019-04-22T19:20:59.532Z,16.00
2019-04-22T19:23:23.962Z,15.90
2019-04-22T19:25:47.116Z,15.90
2019-04-22T19:28:25.133Z,15.80
2019-04-22T19:30:47.832Z,15.90
2019-04-22T19:33:18.882Z,15.80
2019-04-22T19:35:40.086Z,15.90
2019-04-22T19:38:11.676Z,15.80
2019-04-22T19:40:55.575Z,15.80
2019-04-22T19:43:18.668Z,15.80
2019-04-22T19:45:43.093Z,15.70
2019-04-22T19:48:22.148Z,15.70
2019-04-22T19:50:50.567Z,15.70
2019-04-22T19:53:10.651Z,15.60
2019-04-22T19:55:41.200Z,15.50
2019-04-22T19:58:07.179Z,15.50
2019-04-22T20:00:38.817Z,15.50
2019-04-22T20:03:21.708Z,15.40
2019-04-22T20:05:50.878Z,15.30
2019-04-22T20:08:22.907Z,15.20
2019-04-22T20:10:51.252Z,15.10
2019-04-22T20:13:24.233Z,15.00
2019-04-22T20:15:43.791Z,15.00
2019-04-22T20:21:04.613Z,14.90
2019-04-22T20:23:22.933Z,14.90
2019-04-22T20:25:59.020Z,14.80
2019-04-22T20:28:32.689Z,14.70
2019-04-22T20:31:03.163Z,14.60
2019-04-22T20:33:36.418Z,14.60
2019-04-22T20:35:58.352Z,14.50
2019-04-22T20:38:28.167Z,14.50
2019-04-22T20:40:55.168Z,14.40
2019-04-22T20:43:30.625Z,14.40
2019-04-22T20:46:02.411Z,14.40
2019-04-22T20:48:15.669Z,14.40
2019-04-22T20:51:02.586Z,14.30
2019-04-22T20:53:31.226Z,14.30
2019-04-22T20:55:52.458Z,14.30
2019-04-22T20:58:24.100Z,14.20
2019-04-22T21:00:40.363Z,14.20
2019-04-22T21:03:13.340Z,14.00
2019-04-22T21:05:44.502Z,14.00
2019-04-22T21:08:23.894Z,14.00
2019-04-22T21:10:45.601Z,13.90
2019-04-22T21:13:16.645Z,13.90
2019-04-22T21:15:50.098Z,13.80
2019-04-22T21:18:15.642Z,13.80
2019-04-22T21:20:56.293Z,13.70
2019-04-22T21:23:18.884Z,13.60
2019-04-22T21:25:41.371Z,13.60
2019-04-22T21:28:21.896Z,13.50
2019-04-22T21:30:48.094Z,13.50
2019-04-22T21:33:17.690Z,13.40
2019-04-22T21:38:21.355Z,13.30
2019-04-22T21:40:47.382Z,13.30
2019-04-22T21:43:18.536Z,13.20
2019-04-22T21:45:43.291Z,13.20
2019-04-22T21:48:26.384Z,13.10
2019-04-22T21:53:14.516Z,13.00
2019-04-22T21:55:54.701Z,12.90
2019-04-22T21:58:21.336Z,12.90
2019-04-22T22:01:14.561Z,12.80
2019-04-22T22:03:40.097Z,12.70
2019-04-22T22:05:56.915Z,12.70
2019-04-22T22:08:40.632Z,12.60
2019-04-22T22:11:02.633Z,12.60
2019-04-22T22:13:31.968Z,12.60
2019-04-22T22:16:03.245Z,12.40
2019-04-22T22:18:26.092Z,12.30
2019-04-22T22:21:19.648Z,12.30
2019-04-22T22:23:31.176Z,12.30
2019-04-22T22:25:52.241Z,12.20
2019-04-22T22:28:45.392Z,12.20
2019-04-22T22:31:05.007Z,12.10
2019-04-22T22:33:26.927Z,12.10
2019-04-22T22:35:54.691Z,12.00
2019-04-22T22:38:25.342Z,12.00
2019-04-22T22:40:38.466Z,12.00
2019-04-22T22:43:11.734Z,11.90
2019-04-22T22:45:48.313Z,11.90
2019-04-22T22:48:33.733Z,12.00
2019-04-22T22:51:02.126Z,11.90
2019-04-22T22:53:34.048Z,12.00
2019-04-22T22:55:56.033Z,11.90
2019-04-22T22:58:29.318Z,11.90
2019-04-22T23:00:56.035Z,11.90
2019-04-22T23:05:57.612Z,11.80
2019-04-22T23:08:26.503Z,11.70
2019-04-22T23:11:00.785Z,11.70
2019-04-22T23:13:26.886Z,11.70
2019-04-22T23:15:44.257Z,11.70
2019-04-22T23:17:58.442Z,11.70
2019-04-22T23:20:30.969Z,11.60
2019-04-22T23:23:13.743Z,11.60
2019-04-22T23:25:53.265Z,11.60
2019-04-22T23:28:13.071Z,11.60
2019-04-22T23:30:38.316Z,11.60
2019-04-22T23:33:19.139Z,11.60
2019-04-22T23:35:47.016Z,11.50
2019-04-22T23:38:16.447Z,11.50
2019-04-22T23:40:52.752Z,11.50
2019-04-22T23:43:27.440Z,11.40
2019-04-22T23:45:57.837Z,11.40
2019-04-22T23:48:17.935Z,11.30
2019-04-22T23:51:00.658Z,11.30
2019-04-22T23:53:36.435Z,11.30
2019-04-22T23:55:54.307Z,11.30
2019-04-22T23:58:41.884Z,11.30
